Kearney, Nebraska
Current Conditions -  °F | °C
As of 7:15 AM on Saturday 22 Nov 2014 (Local Time) from KEAR Reporting Station
Overcast Overcast  
Wind Chill: 18°   Ceiling: 200
Heat Index: 25°   Visibility: 1.7mi
Dew Point: 23°   Wind: 6mph
Humidity: 93%   Direction: 170°S
Pressure: 29.84"   Gusts: NA
Location:  40.7°N, 99.08°W
Report Text: KEAR 221315Z 17005KT 1 3/4SM OVC002 M04/M05 A2984 RMK AO1
Loading
Personal Weather Stations






























Interactive Weather Map New forecast layout! Learn more

10-Day Weather Forecast

Advertisements
Track Severe Weather on mobile